sensor_id;sensor_type;location;lat;lon;timestamp;P1;durP1;ratioP1;P2;durP2;ratioP2
69327;SDS011;56472;52.114;5.492;2023-07-31T00:01:35;0.93;;;0.80;;
69327;SDS011;56472;52.114;5.492;2023-07-31T00:04:02;0.43;;;0.43;;
69327;SDS011;56472;52.114;5.492;2023-07-31T00:06:29;1.85;;;0.80;;
69327;SDS011;56472;52.114;5.492;2023-07-31T00:08:56;0.65;;;0.65;;
69327;SDS011;56472;52.114;5.492;2023-07-31T00:11:23;0.52;;;0.52;;
69327;SDS011;56472;52.114;5.492;2023-07-31T00:13:50;0.68;;;0.68;;
69327;SDS011;56472;52.114;5.492;2023-07-31T00:16:16;0.50;;;0.50;;
69327;SDS011;56472;52.114;5.492;2023-07-31T00:18:43;0.60;;;0.60;;
69327;SDS011;56472;52.114;5.492;2023-07-31T00:21:10;0.70;;;0.70;;
69327;SDS011;56472;52.114;5.492;2023-07-31T00:23:37;1.05;;;0.60;;
69327;SDS011;56472;52.114;5.492;2023-07-31T00:26:03;0.65;;;0.50;;
69327;SDS011;56472;52.114;5.492;2023-07-31T00:28:30;0.50;;;0.50;;
69327;SDS011;56472;52.114;5.492;2023-07-31T00:30:57;0.82;;;0.75;;
69327;SDS011;56472;52.114;5.492;2023-07-31T00:33:25;0.60;;;0.60;;
69327;SDS011;56472;52.114;5.492;2023-07-31T00:35:51;0.40;;;0.40;;
69327;SDS011;56472;52.114;5.492;2023-07-31T00:38:18;0.60;;;0.60;;
69327;SDS011;56472;52.114;5.492;2023-07-31T00:40:45;1.08;;;0.70;;
69327;SDS011;56472;52.114;5.492;2023-07-31T00:43:12;0.60;;;0.60;;
69327;SDS011;56472;52.114;5.492;2023-07-31T00:45:39;0.60;;;0.60;;
69327;SDS011;56472;52.114;5.492;2023-07-31T00:48:07;0.68;;;0.60;;
69327;SDS011;56472;52.114;5.492;2023-07-31T00:50:34;1.05;;;0.60;;
69327;SDS011;56472;52.114;5.492;2023-07-31T00:53:02;0.93;;;0.75;;
69327;SDS011;56472;52.114;5.492;2023-07-31T00:55:29;0.68;;;0.55;;
69327;SDS011;56472;52.114;5.492;2023-07-31T00:57:56;0.73;;;0.73;;
69327;SDS011;56472;52.114;5.492;2023-07-31T01:00:23;1.25;;;1.00;;
69327;SDS011;56472;52.114;5.492;2023-07-31T01:02:50;0.93;;;0.73;;
69327;SDS011;56472;52.114;5.492;2023-07-31T01:05:23;0.70;;;0.70;;
69327;SDS011;56472;52.114;5.492;2023-07-31T01:08:02;0.70;;;0.70;;
69327;SDS011;56472;52.114;5.492;2023-07-31T01:10:40;0.93;;;0.88;;
69327;SDS011;56472;52.114;5.492;2023-07-31T01:13:16;1.42;;;1.10;;
69327;SDS011;56472;52.114;5.492;2023-07-31T01:15:44;1.00;;;0.90;;
69327;SDS011;56472;52.114;5.492;2023-07-31T01:18:11;1.60;;;1.00;;
69327;SDS011;56472;52.114;5.492;2023-07-31T01:20:38;0.90;;;0.90;;
69327;SDS011;56472;52.114;5.492;2023-07-31T01:28:14;1.08;;;0.98;;
69327;SDS011;56472;52.114;5.492;2023-07-31T01:30:51;1.00;;;1.00;;
69327;SDS011;56472;52.114;5.492;2023-07-31T01:33:21;1.25;;;1.20;;
69327;SDS011;56472;52.114;5.492;2023-07-31T01:35:49;1.95;;;1.00;;
69327;SDS011;56472;52.114;5.492;2023-07-31T01:38:19;1.30;;;1.20;;
69327;SDS011;56472;52.114;5.492;2023-07-31T01:40:50;2.05;;;1.30;;
69327;SDS011;56472;52.114;5.492;2023-07-31T01:43:19;1.45;;;1.35;;
69327;SDS011;56472;52.114;5.492;2023-07-31T01:45:46;1.30;;;1.20;;
69327;SDS011;56472;52.114;5.492;2023-07-31T01:48:12;2.83;;;1.52;;
69327;SDS011;56472;52.114;5.492;2023-07-31T01:50:40;1.92;;;1.15;;
69327;SDS011;56472;52.114;5.492;2023-07-31T01:53:07;2.85;;;1.92;;
69327;SDS011;56472;52.114;5.492;2023-07-31T01:55:34;2.13;;;1.45;;
69327;SDS011;56472;52.114;5.492;2023-07-31T01:58:00;1.38;;;1.23;;
69327;SDS011;56472;52.114;5.492;2023-07-31T02:00:27;1.50;;;1.40;;
69327;SDS011;56472;52.114;5.492;2023-07-31T02:02:54;1.70;;;1.60;;
69327;SDS011;56472;52.114;5.492;2023-07-31T02:05:21;1.02;;;1.00;;
69327;SDS011;56472;52.114;5.492;2023-07-31T02:07:48;1.27;;;1.20;;
69327;SDS011;56472;52.114;5.492;2023-07-31T02:10:14;2.67;;;1.23;;
69327;SDS011;56472;52.114;5.492;2023-07-31T02:12:41;2.20;;;1.27;;
69327;SDS011;56472;52.114;5.492;2023-07-31T02:15:08;1.55;;;1.40;;
69327;SDS011;56472;52.114;5.492;2023-07-31T02:17:35;1.42;;;1.33;;
69327;SDS011;56472;52.114;5.492;2023-07-31T02:20:02;1.98;;;1.55;;
69327;SDS011;56472;52.114;5.492;2023-07-31T02:22:30;3.65;;;1.45;;
69327;SDS011;56472;52.114;5.492;2023-07-31T02:24:57;1.70;;;1.38;;
69327;SDS011;56472;52.114;5.492;2023-07-31T02:27:23;1.50;;;1.40;;
69327;SDS011;56472;52.114;5.492;2023-07-31T02:29:54;1.88;;;1.65;;
69327;SDS011;56472;52.114;5.492;2023-07-31T02:32:21;1.63;;;1.52;;
69327;SDS011;56472;52.114;5.492;2023-07-31T02:34:48;2.05;;;1.70;;
69327;SDS011;56472;52.114;5.492;2023-07-31T02:37:16;3.13;;;1.65;;
69327;SDS011;56472;52.114;5.492;2023-07-31T02:39:42;1.63;;;1.50;;
69327;SDS011;56472;52.114;5.492;2023-07-31T02:42:09;3.78;;;1.67;;
69327;SDS011;56472;52.114;5.492;2023-07-31T02:44:36;1.60;;;1.50;;
69327;SDS011;56472;52.114;5.492;2023-07-31T02:47:03;2.88;;;1.60;;
69327;SDS011;56472;52.114;5.492;2023-07-31T02:49:30;1.42;;;1.33;;
69327;SDS011;56472;52.114;5.492;2023-07-31T02:51:57;1.40;;;1.30;;
69327;SDS011;56472;52.114;5.492;2023-07-31T02:54:23;2.60;;;1.50;;
69327;SDS011;56472;52.114;5.492;2023-07-31T02:56:50;1.50;;;1.40;;
69327;SDS011;56472;52.114;5.492;2023-07-31T02:59:17;2.70;;;1.60;;
69327;SDS011;56472;52.114;5.492;2023-07-31T03:01:44;3.17;;;1.55;;
69327;SDS011;56472;52.114;5.492;2023-07-31T03:04:11;1.90;;;1.73;;
69327;SDS011;56472;52.114;5.492;2023-07-31T03:06:38;1.85;;;1.65;;
69327;SDS011;56472;52.114;5.492;2023-07-31T03:09:05;1.50;;;1.40;;
69327;SDS011;56472;52.114;5.492;2023-07-31T03:11:32;4.10;;;2.08;;
69327;SDS011;56472;52.114;5.492;2023-07-31T03:13:59;1.70;;;1.60;;
69327;SDS011;56472;52.114;5.492;2023-07-31T03:16:26;1.80;;;1.42;;
69327;SDS011;56472;52.114;5.492;2023-07-31T03:18:53;1.50;;;1.40;;
69327;SDS011;56472;52.114;5.492;2023-07-31T03:21:20;3.22;;;2.00;;
69327;SDS011;56472;52.114;5.492;2023-07-31T03:23:47;3.80;;;1.55;;
69327;SDS011;56472;52.114;5.492;2023-07-31T03:26:14;2.95;;;1.83;;
69327;SDS011;56472;52.114;5.492;2023-07-31T03:28:41;3.55;;;2.03;;
69327;SDS011;56472;52.114;5.492;2023-07-31T03:31:07;6.38;;;2.47;;
69327;SDS011;56472;52.114;5.492;2023-07-31T03:33:34;2.45;;;1.80;;
69327;SDS011;56472;52.114;5.492;2023-07-31T03:36:02;1.77;;;1.63;;
69327;SDS011;56472;52.114;5.492;2023-07-31T03:38:29;2.70;;;1.90;;
69327;SDS011;56472;52.114;5.492;2023-07-31T03:40:56;2.88;;;2.08;;
69327;SDS011;56472;52.114;5.492;2023-07-31T03:43:25;2.00;;;1.85;;
69327;SDS011;56472;52.114;5.492;2023-07-31T03:45:52;2.35;;;2.00;;
69327;SDS011;56472;52.114;5.492;2023-07-31T03:48:19;2.55;;;2.00;;
69327;SDS011;56472;52.114;5.492;2023-07-31T03:50:46;2.30;;;1.88;;
69327;SDS011;56472;52.114;5.492;2023-07-31T03:53:13;2.13;;;1.83;;
69327;SDS011;56472;52.114;5.492;2023-07-31T03:55:40;3.95;;;2.35;;
69327;SDS011;56472;52.114;5.492;2023-07-31T03:58:07;3.05;;;2.13;;
69327;SDS011;56472;52.114;5.492;2023-07-31T04:00:34;2.42;;;2.08;;
69327;SDS011;56472;52.114;5.492;2023-07-31T04:03:01;1.92;;;1.63;;
69327;SDS011;56472;52.114;5.492;2023-07-31T04:05:29;2.70;;;2.40;;
69327;SDS011;56472;52.114;5.492;2023-07-31T04:07:57;2.10;;;2.00;;
69327;SDS011;56472;52.114;5.492;2023-07-31T04:10:24;2.60;;;2.10;;
69327;SDS011;56472;52.114;5.492;2023-07-31T04:12:51;3.25;;;2.30;;
69327;SDS011;56472;52.114;5.492;2023-07-31T04:15:18;2.88;;;2.10;;
69327;SDS011;56472;52.114;5.492;2023-07-31T04:17:45;3.25;;;2.30;;
69327;SDS011;56472;52.114;5.492;2023-07-31T04:20:11;4.55;;;2.13;;
69327;SDS011;56472;52.114;5.492;2023-07-31T04:22:38;2.65;;;1.90;;
69327;SDS011;56472;52.114;5.492;2023-07-31T04:25:05;2.55;;;2.30;;
69327;SDS011;56472;52.114;5.492;2023-07-31T04:27:32;2.90;;;2.00;;
69327;SDS011;56472;52.114;5.492;2023-07-31T04:29:59;3.95;;;2.38;;
69327;SDS011;56472;52.114;5.492;2023-07-31T04:32:25;4.03;;;2.22;;
69327;SDS011;56472;52.114;5.492;2023-07-31T04:34:52;2.80;;;2.30;;
69327;SDS011;56472;52.114;5.492;2023-07-31T04:37:19;3.42;;;2.10;;
69327;SDS011;56472;52.114;5.492;2023-07-31T04:39:46;2.08;;;1.88;;
69327;SDS011;56472;52.114;5.492;2023-07-31T04:42:13;5.78;;;2.45;;
69327;SDS011;56472;52.114;5.492;2023-07-31T04:44:39;2.42;;;2.22;;
69327;SDS011;56472;52.114;5.492;2023-07-31T04:47:06;3.03;;;2.10;;
69327;SDS011;56472;52.114;5.492;2023-07-31T04:49:33;2.85;;;2.50;;
69327;SDS011;56472;52.114;5.492;2023-07-31T04:52:00;2.42;;;2.20;;
69327;SDS011;56472;52.114;5.492;2023-07-31T04:54:27;3.67;;;2.33;;
69327;SDS011;56472;52.114;5.492;2023-07-31T04:56:53;2.83;;;2.25;;
69327;SDS011;56472;52.114;5.492;2023-07-31T04:59:20;2.80;;;2.38;;
69327;SDS011;56472;52.114;5.492;2023-07-31T05:01:47;3.90;;;2.42;;
69327;SDS011;56472;52.114;5.492;2023-07-31T05:04:14;2.75;;;2.22;;
69327;SDS011;56472;52.114;5.492;2023-07-31T05:06:41;2.78;;;2.08;;
69327;SDS011;56472;52.114;5.492;2023-07-31T05:09:08;3.15;;;2.13;;
69327;SDS011;56472;52.114;5.492;2023-07-31T05:11:38;3.63;;;2.40;;
69327;SDS011;56472;52.114;5.492;2023-07-31T05:14:06;2.80;;;2.33;;
69327;SDS011;56472;52.114;5.492;2023-07-31T05:16:33;2.13;;;2.00;;
69327;SDS011;56472;52.114;5.492;2023-07-31T05:19:00;3.50;;;2.42;;
69327;SDS011;56472;52.114;5.492;2023-07-31T05:21:27;3.30;;;2.30;;
69327;SDS011;56472;52.114;5.492;2023-07-31T05:23:54;6.72;;;2.47;;
69327;SDS011;56472;52.114;5.492;2023-07-31T05:26:21;2.50;;;2.22;;
69327;SDS011;56472;52.114;5.492;2023-07-31T05:28:48;3.88;;;2.50;;
69327;SDS011;56472;52.114;5.492;2023-07-31T05:31:15;3.55;;;2.20;;
69327;SDS011;56472;52.114;5.492;2023-07-31T05:33:42;4.80;;;2.67;;
69327;SDS011;56472;52.114;5.492;2023-07-31T05:36:08;2.83;;;2.15;;
69327;SDS011;56472;52.114;5.492;2023-07-31T05:38:35;2.22;;;2.03;;
69327;SDS011;56472;52.114;5.492;2023-07-31T05:41:02;4.10;;;2.08;;
69327;SDS011;56472;52.114;5.492;2023-07-31T05:43:29;3.17;;;2.30;;
69327;SDS011;56472;52.114;5.492;2023-07-31T05:45:56;2.45;;;2.15;;
69327;SDS011;56472;52.114;5.492;2023-07-31T05:48:23;2.90;;;2.05;;
69327;SDS011;56472;52.114;5.492;2023-07-31T05:50:50;2.20;;;1.92;;
69327;SDS011;56472;52.114;5.492;2023-07-31T05:53:16;3.38;;;2.40;;
69327;SDS011;56472;52.114;5.492;2023-07-31T05:55:43;2.80;;;2.50;;
69327;SDS011;56472;52.114;5.492;2023-07-31T05:58:10;3.05;;;2.30;;
69327;SDS011;56472;52.114;5.492;2023-07-31T06:00:36;2.45;;;1.95;;
69327;SDS011;56472;52.114;5.492;2023-07-31T06:03:03;3.05;;;2.42;;
69327;SDS011;56472;52.114;5.492;2023-07-31T06:05:30;1.90;;;1.80;;
69327;SDS011;56472;52.114;5.492;2023-07-31T06:07:57;2.75;;;1.90;;
69327;SDS011;56472;52.114;5.492;2023-07-31T06:10:24;2.05;;;1.95;;
69327;SDS011;56472;52.114;5.492;2023-07-31T06:12:51;5.07;;;2.30;;
69327;SDS011;56472;52.114;5.492;2023-07-31T06:15:18;2.30;;;2.10;;
69327;SDS011;56472;52.114;5.492;2023-07-31T06:17:45;2.47;;;2.20;;
69327;SDS011;56472;52.114;5.492;2023-07-31T06:20:12;2.38;;;2.00;;
69327;SDS011;56472;52.114;5.492;2023-07-31T06:22:39;3.97;;;2.30;;
69327;SDS011;56472;52.114;5.492;2023-07-31T06:25:06;2.20;;;2.00;;
69327;SDS011;56472;52.114;5.492;2023-07-31T06:27:33;2.28;;;2.00;;
69327;SDS011;56472;52.114;5.492;2023-07-31T06:30:00;3.05;;;2.15;;
69327;SDS011;56472;52.114;5.492;2023-07-31T06:32:26;3.42;;;2.30;;
69327;SDS011;56472;52.114;5.492;2023-07-31T06:34:53;3.50;;;1.92;;
69327;SDS011;56472;52.114;5.492;2023-07-31T06:37:20;2.00;;;1.80;;
69327;SDS011;56472;52.114;5.492;2023-07-31T06:39:47;3.83;;;2.10;;
69327;SDS011;56472;52.114;5.492;2023-07-31T06:42:14;2.60;;;2.00;;
69327;SDS011;56472;52.114;5.492;2023-07-31T06:44:41;3.67;;;2.05;;
69327;SDS011;56472;52.114;5.492;2023-07-31T06:47:08;3.70;;;2.00;;
69327;SDS011;56472;52.114;5.492;2023-07-31T06:49:35;2.22;;;1.70;;
69327;SDS011;56472;52.114;5.492;2023-07-31T06:52:01;2.58;;;1.90;;
69327;SDS011;56472;52.114;5.492;2023-07-31T06:54:28;1.73;;;1.58;;
69327;SDS011;56472;52.114;5.492;2023-07-31T06:56:55;2.38;;;1.77;;
69327;SDS011;56472;52.114;5.492;2023-07-31T06:59:22;1.70;;;1.52;;
69327;SDS011;56472;52.114;5.492;2023-07-31T07:01:49;1.67;;;1.58;;
69327;SDS011;56472;52.114;5.492;2023-07-31T07:04:15;1.85;;;1.75;;
69327;SDS011;56472;52.114;5.492;2023-07-31T07:06:42;1.88;;;1.70;;
69327;SDS011;56472;52.114;5.492;2023-07-31T07:09:09;2.00;;;1.77;;
69327;SDS011;56472;52.114;5.492;2023-07-31T07:11:36;1.70;;;1.60;;
69327;SDS011;56472;52.114;5.492;2023-07-31T07:14:03;1.67;;;1.55;;
69327;SDS011;56472;52.114;5.492;2023-07-31T07:16:30;1.98;;;1.80;;
69327;SDS011;56472;52.114;5.492;2023-07-31T07:18:57;1.60;;;1.50;;
69327;SDS011;56472;52.114;5.492;2023-07-31T07:21:30;1.35;;;1.25;;
69327;SDS011;56472;52.114;5.492;2023-07-31T07:23:57;1.52;;;1.40;;
69327;SDS011;56472;52.114;5.492;2023-07-31T07:26:24;1.73;;;1.63;;
69327;SDS011;56472;52.114;5.492;2023-07-31T07:28:50;1.70;;;1.60;;
69327;SDS011;56472;52.114;5.492;2023-07-31T07:31:17;1.70;;;1.60;;
69327;SDS011;56472;52.114;5.492;2023-07-31T07:33:44;2.05;;;1.45;;
69327;SDS011;56472;52.114;5.492;2023-07-31T07:36:11;1.70;;;1.45;;
69327;SDS011;56472;52.114;5.492;2023-07-31T07:38:39;1.50;;;1.40;;
69327;SDS011;56472;52.114;5.492;2023-07-31T07:41:07;1.70;;;1.20;;
69327;SDS011;56472;52.114;5.492;2023-07-31T07:43:34;1.40;;;1.30;;
69327;SDS011;56472;52.114;5.492;2023-07-31T07:46:00;1.63;;;1.52;;
69327;SDS011;56472;52.114;5.492;2023-07-31T07:48:27;1.20;;;1.20;;
69327;SDS011;56472;52.114;5.492;2023-07-31T07:50:54;1.40;;;1.30;;
69327;SDS011;56472;52.114;5.492;2023-07-31T07:53:21;1.73;;;1.63;;
69327;SDS011;56472;52.114;5.492;2023-07-31T07:55:48;1.33;;;1.23;;
69327;SDS011;56472;52.114;5.492;2023-07-31T07:58:14;1.40;;;1.30;;
69327;SDS011;56472;52.114;5.492;2023-07-31T08:00:41;1.20;;;1.20;;
69327;SDS011;56472;52.114;5.492;2023-07-31T08:03:08;1.50;;;1.40;;
69327;SDS011;56472;52.114;5.492;2023-07-31T08:05:36;1.48;;;1.23;;
69327;SDS011;56472;52.114;5.492;2023-07-31T08:08:02;1.30;;;1.20;;
69327;SDS011;56472;52.114;5.492;2023-07-31T08:10:29;1.48;;;1.20;;
69327;SDS011;56472;52.114;5.492;2023-07-31T08:12:56;1.10;;;1.10;;
69327;SDS011;56472;52.114;5.492;2023-07-31T08:15:23;1.27;;;1.20;;
69327;SDS011;56472;52.114;5.492;2023-07-31T08:17:50;1.38;;;1.10;;
69327;SDS011;56472;52.114;5.492;2023-07-31T08:20:16;1.20;;;1.10;;
69327;SDS011;56472;52.114;5.492;2023-07-31T08:22:43;1.17;;;1.00;;
69327;SDS011;56472;52.114;5.492;2023-07-31T08:25:10;1.00;;;1.00;;
69327;SDS011;56472;52.114;5.492;2023-07-31T08:27:37;1.25;;;1.15;;
69327;SDS011;56472;52.114;5.492;2023-07-31T08:30:04;1.58;;;1.17;;
69327;SDS011;56472;52.114;5.492;2023-07-31T08:32:31;1.10;;;1.10;;
69327;SDS011;56472;52.114;5.492;2023-07-31T08:34:58;1.00;;;1.00;;
69327;SDS011;56472;52.114;5.492;2023-07-31T08:37:25;1.00;;;1.00;;
69327;SDS011;56472;52.114;5.492;2023-07-31T08:39:51;1.45;;;1.10;;
69327;SDS011;56472;52.114;5.492;2023-07-31T08:42:18;1.20;;;1.17;;
69327;SDS011;56472;52.114;5.492;2023-07-31T08:44:45;0.98;;;0.98;;
69327;SDS011;56472;52.114;5.492;2023-07-31T08:47:13;0.80;;;0.80;;
69327;SDS011;56472;52.114;5.492;2023-07-31T08:49:42;0.93;;;0.93;;
69327;SDS011;56472;52.114;5.492;2023-07-31T08:52:10;1.10;;;1.10;;
69327;SDS011;56472;52.114;5.492;2023-07-31T08:54:37;2.17;;;1.08;;
69327;SDS011;56472;52.114;5.492;2023-07-31T08:57:04;1.38;;;1.13;;
69327;SDS011;56472;52.114;5.492;2023-07-31T08:59:32;0.80;;;0.80;;
69327;SDS011;56472;52.114;5.492;2023-07-31T09:02:05;0.82;;;0.82;;
69327;SDS011;56472;52.114;5.492;2023-07-31T09:04:34;1.00;;;1.00;;
69327;SDS011;56472;52.114;5.492;2023-07-31T09:07:02;0.93;;;0.93;;
69327;SDS011;56472;52.114;5.492;2023-07-31T09:09:30;0.80;;;0.80;;
69327;SDS011;56472;52.114;5.492;2023-07-31T09:11:58;0.90;;;0.90;;
69327;SDS011;56472;52.114;5.492;2023-07-31T09:14:25;0.88;;;0.82;;
69327;SDS011;56472;52.114;5.492;2023-07-31T09:16:53;0.82;;;0.82;;
69327;SDS011;56472;52.114;5.492;2023-07-31T09:19:27;0.93;;;0.88;;
69327;SDS011;56472;52.114;5.492;2023-07-31T09:22:03;0.70;;;0.70;;
69327;SDS011;56472;52.114;5.492;2023-07-31T09:24:34;1.00;;;1.00;;
69327;SDS011;56472;52.114;5.492;2023-07-31T09:27:01;0.88;;;0.75;;
69327;SDS011;56472;52.114;5.492;2023-07-31T09:29:28;1.15;;;1.15;;
69327;SDS011;56472;52.114;5.492;2023-07-31T09:31:56;0.80;;;0.80;;
69327;SDS011;56472;52.114;5.492;2023-07-31T09:34:28;0.80;;;0.80;;
69327;SDS011;56472;52.114;5.492;2023-07-31T09:37:02;0.82;;;0.82;;
69327;SDS011;56472;52.114;5.492;2023-07-31T09:39:30;0.98;;;0.98;;
69327;SDS011;56472;52.114;5.492;2023-07-31T09:41:57;1.00;;;1.00;;
69327;SDS011;56472;52.114;5.492;2023-07-31T09:44:37;0.90;;;0.90;;
69327;SDS011;56472;52.114;5.492;2023-07-31T09:47:06;0.60;;;0.60;;
69327;SDS011;56472;52.114;5.492;2023-07-31T09:49:46;0.70;;;0.70;;
69327;SDS011;56472;52.114;5.492;2023-07-31T09:52:13;1.60;;;0.85;;
69327;SDS011;56472;52.114;5.492;2023-07-31T09:54:40;0.80;;;0.80;;
69327;SDS011;56472;52.114;5.492;2023-07-31T09:57:08;1.38;;;1.27;;
69327;SDS011;56472;52.114;5.492;2023-07-31T09:59:36;0.70;;;0.70;;
69327;SDS011;56472;52.114;5.492;2023-07-31T10:02:03;2.10;;;0.80;;
69327;SDS011;56472;52.114;5.492;2023-07-31T10:04:30;0.90;;;0.90;;
69327;SDS011;56472;52.114;5.492;2023-07-31T10:06:57;2.17;;;1.02;;
69327;SDS011;56472;52.114;5.492;2023-07-31T10:09:28;0.93;;;0.93;;
69327;SDS011;56472;52.114;5.492;2023-07-31T10:11:59;0.82;;;0.80;;
69327;SDS011;56472;52.114;5.492;2023-07-31T10:14:28;0.80;;;0.80;;
69327;SDS011;56472;52.114;5.492;2023-07-31T10:16:57;0.88;;;0.80;;
69327;SDS011;56472;52.114;5.492;2023-07-31T10:19:24;1.98;;;0.80;;
69327;SDS011;56472;52.114;5.492;2023-07-31T10:21:53;3.25;;;1.30;;
69327;SDS011;56472;52.114;5.492;2023-07-31T10:24:22;0.70;;;0.70;;
69327;SDS011;56472;52.114;5.492;2023-07-31T10:26:50;0.90;;;0.90;;
69327;SDS011;56472;52.114;5.492;2023-07-31T10:29:19;1.20;;;1.00;;
69327;SDS011;56472;52.114;5.492;2023-07-31T10:31:48;0.95;;;0.85;;
69327;SDS011;56472;52.114;5.492;2023-07-31T10:34:15;1.58;;;0.90;;
69327;SDS011;56472;52.114;5.492;2023-07-31T10:36:42;0.88;;;0.88;;
69327;SDS011;56472;52.114;5.492;2023-07-31T10:42:11;0.90;;;0.90;;
69327;SDS011;56472;52.114;5.492;2023-07-31T10:44:44;0.90;;;0.90;;
69327;SDS011;56472;52.114;5.492;2023-07-31T10:49:46;2.10;;;1.20;;
69327;SDS011;56472;52.114;5.492;2023-07-31T10:52:13;1.67;;;0.90;;
69327;SDS011;56472;52.114;5.492;2023-07-31T10:57:21;1.35;;;0.90;;
69327;SDS011;56472;52.114;5.492;2023-07-31T10:59:48;0.90;;;0.90;;
69327;SDS011;56472;52.114;5.492;2023-07-31T11:02:25;1.77;;;1.00;;
69327;SDS011;56472;52.114;5.492;2023-07-31T11:05:10;1.00;;;1.00;;
69327;SDS011;56472;52.114;5.492;2023-07-31T11:07:49;1.05;;;0.95;;
69327;SDS011;56472;52.114;5.492;2023-07-31T11:10:17;0.88;;;0.88;;
69327;SDS011;56472;52.114;5.492;2023-07-31T11:12:45;0.80;;;0.80;;
69327;SDS011;56472;52.114;5.492;2023-07-31T11:15:13;1.95;;;0.82;;
69327;SDS011;56472;52.114;5.492;2023-07-31T11:17:40;0.70;;;0.70;;
69327;SDS011;56472;52.114;5.492;2023-07-31T11:20:07;2.15;;;0.80;;
69327;SDS011;56472;52.114;5.492;2023-07-31T11:22:34;0.80;;;0.80;;
69327;SDS011;56472;52.114;5.492;2023-07-31T11:25:05;1.10;;;1.00;;
69327;SDS011;56472;52.114;5.492;2023-07-31T11:27:38;10.27;;;1.35;;
69327;SDS011;56472;52.114;5.492;2023-07-31T11:30:06;0.75;;;0.75;;
69327;SDS011;56472;52.114;5.492;2023-07-31T11:32:36;1.60;;;1.10;;
69327;SDS011;56472;52.114;5.492;2023-07-31T11:35:03;1.25;;;0.80;;
69327;SDS011;56472;52.114;5.492;2023-07-31T11:37:41;1.25;;;0.80;;
69327;SDS011;56472;52.114;5.492;2023-07-31T11:40:09;1.15;;;1.00;;
69327;SDS011;56472;52.114;5.492;2023-07-31T11:42:36;0.68;;;0.68;;
69327;SDS011;56472;52.114;5.492;2023-07-31T11:45:06;2.67;;;0.98;;
69327;SDS011;56472;52.114;5.492;2023-07-31T11:47:36;1.02;;;0.90;;
69327;SDS011;56472;52.114;5.492;2023-07-31T11:50:04;0.82;;;0.82;;
69327;SDS011;56472;52.114;5.492;2023-07-31T11:52:42;1.02;;;0.98;;
69327;SDS011;56472;52.114;5.492;2023-07-31T11:55:11;1.00;;;0.80;;
69327;SDS011;56472;52.114;5.492;2023-07-31T11:57:39;3.60;;;0.85;;
69327;SDS011;56472;52.114;5.492;2023-07-31T12:00:08;0.82;;;0.82;;
69327;SDS011;56472;52.114;5.492;2023-07-31T12:02:37;2.42;;;0.88;;
69327;SDS011;56472;52.114;5.492;2023-07-31T12:05:06;4.13;;;0.90;;
69327;SDS011;56472;52.114;5.492;2023-07-31T12:10:30;0.82;;;0.82;;
69327;SDS011;56472;52.114;5.492;2023-07-31T12:15:45;1.35;;;1.25;;
69327;SDS011;56472;52.114;5.492;2023-07-31T12:18:15;1.35;;;0.90;;
69327;SDS011;56472;52.114;5.492;2023-07-31T12:20:46;0.75;;;0.75;;
69327;SDS011;56472;52.114;5.492;2023-07-31T12:23:21;1.30;;;0.80;;
69327;SDS011;56472;52.114;5.492;2023-07-31T12:26:01;1.13;;;0.80;;
69327;SDS011;56472;52.114;5.492;2023-07-31T12:31:16;0.70;;;0.70;;
69327;SDS011;56472;52.114;5.492;2023-07-31T12:33:46;0.90;;;0.70;;
69327;SDS011;56472;52.114;5.492;2023-07-31T12:36:15;0.80;;;0.80;;
69327;SDS011;56472;52.114;5.492;2023-07-31T12:38:43;1.00;;;0.82;;
69327;SDS011;56472;52.114;5.492;2023-07-31T12:41:11;0.85;;;0.85;;
69327;SDS011;56472;52.114;5.492;2023-07-31T12:43:39;0.70;;;0.70;;
69327;SDS011;56472;52.114;5.492;2023-07-31T12:46:08;0.65;;;0.65;;
69327;SDS011;56472;52.114;5.492;2023-07-31T12:48:36;0.90;;;0.90;;
69327;SDS011;56472;52.114;5.492;2023-07-31T12:51:05;0.95;;;0.63;;
69327;SDS011;56472;52.114;5.492;2023-07-31T12:53:35;1.00;;;1.00;;
69327;SDS011;56472;52.114;5.492;2023-07-31T12:56:03;1.02;;;0.60;;
69327;SDS011;56472;52.114;5.492;2023-07-31T12:58:30;0.65;;;0.65;;
69327;SDS011;56472;52.114;5.492;2023-07-31T13:00:57;2.05;;;1.00;;
69327;SDS011;56472;52.114;5.492;2023-07-31T13:03:24;0.80;;;0.77;;
69327;SDS011;56472;52.114;5.492;2023-07-31T13:05:52;0.70;;;0.70;;
69327;SDS011;56472;52.114;5.492;2023-07-31T13:08:19;0.85;;;0.85;;
69327;SDS011;56472;52.114;5.492;2023-07-31T13:10:46;1.15;;;0.73;;
69327;SDS011;56472;52.114;5.492;2023-07-31T13:13:13;0.90;;;0.90;;
69327;SDS011;56472;52.114;5.492;2023-07-31T13:15:39;0.90;;;0.90;;
69327;SDS011;56472;52.114;5.492;2023-07-31T13:18:06;0.80;;;0.80;;
69327;SDS011;56472;52.114;5.492;2023-07-31T13:20:33;0.70;;;0.70;;
69327;SDS011;56472;52.114;5.492;2023-07-31T13:23:00;0.60;;;0.60;;
69327;SDS011;56472;52.114;5.492;2023-07-31T13:25:27;0.80;;;0.80;;
69327;SDS011;56472;52.114;5.492;2023-07-31T13:27:54;1.05;;;1.05;;
69327;SDS011;56472;52.114;5.492;2023-07-31T13:30:22;0.88;;;0.82;;
69327;SDS011;56472;52.114;5.492;2023-07-31T13:32:49;0.77;;;0.77;;
69327;SDS011;56472;52.114;5.492;2023-07-31T13:35:16;0.70;;;0.70;;
69327;SDS011;56472;52.114;5.492;2023-07-31T13:37:42;0.75;;;0.75;;
69327;SDS011;56472;52.114;5.492;2023-07-31T13:40:09;0.77;;;0.77;;
69327;SDS011;56472;52.114;5.492;2023-07-31T13:42:36;1.35;;;0.90;;
69327;SDS011;56472;52.114;5.492;2023-07-31T13:45:03;0.88;;;0.88;;
69327;SDS011;56472;52.114;5.492;2023-07-31T13:47:33;1.30;;;0.90;;
69327;SDS011;56472;52.114;5.492;2023-07-31T13:50:01;0.95;;;0.90;;
69327;SDS011;56472;52.114;5.492;2023-07-31T13:52:28;6.18;;;0.75;;
69327;SDS011;56472;52.114;5.492;2023-07-31T13:54:54;0.80;;;0.80;;
69327;SDS011;56472;52.114;5.492;2023-07-31T13:57:21;2.97;;;1.02;;
69327;SDS011;56472;52.114;5.492;2023-07-31T13:59:49;1.30;;;1.20;;
69327;SDS011;56472;52.114;5.492;2023-07-31T14:02:16;0.90;;;0.90;;
69327;SDS011;56472;52.114;5.492;2023-07-31T14:04:43;0.80;;;0.80;;
69327;SDS011;56472;52.114;5.492;2023-07-31T14:07:09;2.20;;;1.08;;
69327;SDS011;56472;52.114;5.492;2023-07-31T14:09:37;1.08;;;0.98;;
69327;SDS011;56472;52.114;5.492;2023-07-31T14:12:04;2.20;;;1.20;;
69327;SDS011;56472;52.114;5.492;2023-07-31T14:14:31;4.30;;;1.08;;
69327;SDS011;56472;52.114;5.492;2023-07-31T14:17:00;1.33;;;1.23;;
69327;SDS011;56472;52.114;5.492;2023-07-31T14:19:28;2.20;;;1.02;;
69327;SDS011;56472;52.114;5.492;2023-07-31T14:21:55;3.80;;;1.23;;
69327;SDS011;56472;52.114;5.492;2023-07-31T14:24:36;2.33;;;1.00;;
69327;SDS011;56472;52.114;5.492;2023-07-31T14:27:03;2.63;;;1.10;;
69327;SDS011;56472;52.114;5.492;2023-07-31T14:29:30;2.17;;;1.15;;
69327;SDS011;56472;52.114;5.492;2023-07-31T14:31:57;1.40;;;1.30;;
69327;SDS011;56472;52.114;5.492;2023-07-31T14:34:25;1.25;;;1.20;;
69327;SDS011;56472;52.114;5.492;2023-07-31T14:36:52;1.30;;;1.20;;
69327;SDS011;56472;52.114;5.492;2023-07-31T14:39:19;6.38;;;1.20;;
69327;SDS011;56472;52.114;5.492;2023-07-31T14:41:46;1.80;;;1.20;;
69327;SDS011;56472;52.114;5.492;2023-07-31T14:44:14;1.38;;;1.27;;
69327;SDS011;56472;52.114;5.492;2023-07-31T14:46:41;1.30;;;1.20;;
69327;SDS011;56472;52.114;5.492;2023-07-31T14:49:08;7.75;;;1.60;;
69327;SDS011;56472;52.114;5.492;2023-07-31T14:51:35;2.67;;;1.50;;
69327;SDS011;56472;52.114;5.492;2023-07-31T14:54:02;1.75;;;1.48;;
69327;SDS011;56472;52.114;5.492;2023-07-31T14:56:29;2.30;;;1.20;;
69327;SDS011;56472;52.114;5.492;2023-07-31T14:58:56;1.48;;;1.33;;
69327;SDS011;56472;52.114;5.492;2023-07-31T15:01:23;5.50;;;2.10;;
69327;SDS011;56472;52.114;5.492;2023-07-31T15:03:50;2.03;;;1.50;;
69327;SDS011;56472;52.114;5.492;2023-07-31T15:06:17;2.78;;;1.40;;
69327;SDS011;56472;52.114;5.492;2023-07-31T15:08:44;1.58;;;1.48;;
69327;SDS011;56472;52.114;5.492;2023-07-31T15:11:11;2.72;;;1.35;;
69327;SDS011;56472;52.114;5.492;2023-07-31T15:13:37;2.58;;;1.50;;